createdAt,value
2022-10-15T00:05:16.018Z,1016.49
2022-10-15T00:19:16.019Z,1016.49
2022-10-15T00:33:16.043Z,1016.5
2022-10-15T00:47:16.015Z,1016.26
2022-10-15T01:01:16.091Z,1016.22
2022-10-15T01:15:16.032Z,1016.21
2022-10-15T01:29:16.028Z,1016.09
2022-10-15T01:43:16.141Z,1015.8
2022-10-15T01:57:16.055Z,1015.91
2022-10-15T02:11:16.052Z,1015.92
2022-10-15T02:25:16.074Z,1015.88
2022-10-15T02:39:16.083Z,1015.56
2022-10-15T02:53:16.143Z,1015.75
2022-10-15T03:07:16.520Z,1015.7
2022-10-15T03:21:16.527Z,1015.62
2022-10-15T03:35:16.541Z,1015.47
2022-10-15T03:49:16.704Z,1015.25
2022-10-15T04:03:16.651Z,1015.53
2022-10-15T04:17:17.694Z,1015.63
2022-10-15T04:31:16.671Z,1015.29
2022-10-15T04:45:16.989Z,1015.3
2022-10-15T04:59:16.959Z,1015.3
2022-10-15T05:13:16.979Z,1015.33
2022-10-15T05:28:17.024Z,1015.32
2022-10-15T05:43:16.998Z,1015.35
2022-10-15T05:58:17.018Z,1015.78
2022-10-15T06:13:17.023Z,1015.69
2022-10-15T06:28:17.089Z,1016.11
2022-10-15T06:43:17.034Z,1016.21
2022-10-15T06:58:17.037Z,1016.16
2022-10-15T07:13:17.055Z,1016.16
2022-10-15T07:28:17.120Z,1016.21
2022-10-15T07:43:17.368Z,1016.09
2022-10-15T07:58:17.326Z,1016.2
2022-10-15T08:14:17.292Z,1016.43
2022-10-15T08:29:17.303Z,1016.48
2022-10-15T08:44:17.309Z,1016.66
2022-10-15T08:59:17.317Z,1016.84
2022-10-15T09:14:17.457Z,1016.79
2022-10-15T09:29:17.464Z,1016.65
2022-10-15T09:44:18.509Z,1016.82
2022-10-15T09:59:17.571Z,1016.88
2022-10-15T10:14:17.466Z,1016.85
2022-10-15T10:29:32.778Z,1016.89
2022-10-15T10:44:17.467Z,1016.77
2022-10-15T10:59:17.467Z,1016.7
2022-10-15T11:14:17.466Z,1016.63
2022-10-15T11:29:17.503Z,1016.6
2022-10-15T11:44:17.528Z,1016.38
2022-10-15T12:00:17.519Z,1016.42
2022-10-15T12:15:17.509Z,1016.29
2022-10-15T12:30:17.502Z,1016.26
2022-10-15T12:45:17.519Z,1016.15
2022-10-15T13:00:17.506Z,1015.98
2022-10-15T13:15:17.520Z,1016.05
2022-10-15T13:30:17.591Z,1016.02
2022-10-15T13:45:17.511Z,1015.98
2022-10-15T14:00:17.548Z,1015.93
2022-10-15T14:15:17.587Z,1016
2022-10-15T14:30:18.705Z,1016.11
2022-10-15T14:45:17.707Z,1016.15
2022-10-15T15:00:17.602Z,1016.05
2022-10-15T15:15:17.612Z,1016.08
2022-10-15T15:30:17.634Z,1016.08
2022-10-15T15:45:17.598Z,1016.19
2022-10-15T16:00:17.600Z,1016.32
2022-10-15T16:15:17.611Z,1016.43
2022-10-15T16:31:17.603Z,1016.68
2022-10-15T16:46:17.611Z,1016.95
2022-10-15T17:01:17.679Z,1017.14
2022-10-15T17:15:17.635Z,1017.34
2022-10-15T17:29:17.620Z,1017.65
2022-10-15T17:43:17.621Z,1017.81
2022-10-15T17:57:17.653Z,1017.8
2022-10-15T18:11:17.632Z,1018.05
2022-10-15T18:25:17.624Z,1018.34
2022-10-15T18:39:17.640Z,1018.43
2022-10-15T18:53:17.650Z,1018.47
2022-10-15T19:07:17.674Z,1018.63
2022-10-15T19:21:17.658Z,1018.8
2022-10-15T19:35:17.667Z,1018.85
2022-10-15T19:49:17.678Z,1018.84
2022-10-15T20:03:17.682Z,1018.97
2022-10-15T20:17:17.696Z,1019.15
2022-10-15T20:31:17.729Z,1019.2
2022-10-15T20:45:17.693Z,1019.34
2022-10-15T20:59:17.684Z,1019.37
2022-10-15T21:13:17.701Z,1019.43
2022-10-15T21:27:17.737Z,1019.56
2022-10-15T21:41:17.731Z,1019.7
2022-10-15T21:55:17.727Z,1019.84
2022-10-15T22:09:17.738Z,1019.94
2022-10-15T22:23:17.723Z,1019.97
2022-10-15T22:37:17.759Z,1020.15
2022-10-15T22:51:17.742Z,1020.12
2022-10-15T23:05:17.736Z,1020.12
2022-10-15T23:19:17.741Z,1020.19
2022-10-15T23:33:17.751Z,1020.26
2022-10-15T23:47:17.768Z,1020.27
